Tropical Cyclones
[Index]
Main Index Home Page Stock Weather Photos Extreme Storms Discussion Storm News and Storm Chasing Reports Tropical Cyclones / Hurricanes / Typhoons Weather Data and Links Wild Fires / Bushfires Weather Observation Techniques Weather Picture Catalogue Tornado Pictures and Reports Stock Video Footage and DVDs for sale
Season 1999-2000 Tropical Cyclone 200006 Track Map
Season 1999-2000 Summaries (Operational Data): [AU] [SIO] [SPAC] [SH]
<<- Previous TC | 1999-2000 Season | Next TC ->>

click for intensity scale information  Lat/long Grid: Show Hide

 Date Labels: Show Hide

Operational Tropical Cyclone Data : JTWC Advisories

Name: 200006
Number: 0006

18 Jan 2000 04:00 UTC to 23 Jan 2000 01:00 UTC

    date/time    lat    long     hPa   cat  kts
2000-01-18 04   10.5   128.5    1002         30          
2000-01-18 12   11.0   127.5    1000    1    35          
2000-01-18 18   11.0   127.0     998    1    35          
2000-01-19 00   11.2   126.3    1000         30          
2000-01-19 06   12.0   126.0    1000         25          
2000-01-19 12   12.7   125.3    1000         25          
2000-01-19 16   13.0   124.3    1000         25          
2000-01-19 22   13.3   123.3    1000         25          
2000-01-20 04   14.3   121.8    1002         25          
2000-01-20 10   15.0   121.0    1002         25          
2000-01-20 16   16.5   118.5     998         30          
2000-01-20 22   17.4   117.6     998         30          
2000-01-21 04   17.8   116.2    1000         30          
2000-01-21 10   18.4   116.1    1000         30          
2000-01-21 16   18.2   115.5    1000         30          
2000-01-21 22   18.5   115.1     997         30          
2000-01-22 04   19.0   114.8     996         30          
2000-01-22 10   18.8   116.1     992         30          
2000-01-22 16   19.0   116.7     992         30          
2000-01-22 22   19.5   117.5     992         30          
2000-01-23 01   20.0   118.0     992         30          
Winds are 10-min average.

Tropical cyclone tracks developed by Michael Bath using operational warnings and advisories and Google Maps.


[Australian Severe Weather index] [Copyright Notice] [Email Contacts] [Search This Site] [Privacy Policy]
Document: tropical_cyclone_200006.htm Updated: 28 May 2013